sensor_id;sensor_type;location;lat;lon;timestamp;pressure;altitude;pressure_sealevel;temperature;humidity
37206;BME280;23099;42.636;23.198;2022-10-31T00:00:53;92535.56;;;10.12;72.70
37206;BME280;23099;42.636;23.198;2022-10-31T00:03:20;92526.00;;;10.11;73.14
37206;BME280;23099;42.636;23.198;2022-10-31T00:05:48;92538.44;;;10.04;72.82
37206;BME280;23099;42.636;23.198;2022-10-31T00:08:16;92527.31;;;10.02;72.32
37206;BME280;23099;42.636;23.198;2022-10-31T00:10:44;92528.53;;;10.04;72.33
37206;BME280;23099;42.636;23.198;2022-10-31T00:13:13;92528.88;;;10.03;72.19
37206;BME280;23099;42.636;23.198;2022-10-31T00:15:40;92520.25;;;9.93;72.43
37206;BME280;23099;42.636;23.198;2022-10-31T00:18:09;92525.06;;;10.04;72.39
37206;BME280;23099;42.636;23.198;2022-10-31T00:20:36;92526.72;;;9.92;73.10
37206;BME280;23099;42.636;23.198;2022-10-31T00:23:03;92523.41;;;9.83;73.15
37206;BME280;23099;42.636;23.198;2022-10-31T00:25:33;92523.69;;;9.94;72.92
37206;BME280;23099;42.636;23.198;2022-10-31T00:28:00;92522.47;;;9.91;73.21
37206;BME280;23099;42.636;23.198;2022-10-31T00:30:28;92520.84;;;10.03;73.10
37206;BME280;23099;42.636;23.198;2022-10-31T00:32:55;92526.09;;;9.99;72.29
37206;BME280;23099;42.636;23.198;2022-10-31T00:35:22;92512.47;;;9.88;72.66
37206;BME280;23099;42.636;23.198;2022-10-31T00:37:48;92525.22;;;9.79;72.83
37206;BME280;23099;42.636;23.198;2022-10-31T00:40:15;92526.91;;;9.72;73.36
37206;BME280;23099;42.636;23.198;2022-10-31T00:42:42;92524.47;;;9.67;73.60
37206;BME280;23099;42.636;23.198;2022-10-31T00:45:09;92516.97;;;9.56;74.42
37206;BME280;23099;42.636;23.198;2022-10-31T00:47:38;92516.31;;;9.60;74.68
37206;BME280;23099;42.636;23.198;2022-10-31T00:50:05;92519.59;;;9.69;74.23
37206;BME280;23099;42.636;23.198;2022-10-31T00:52:32;92513.63;;;9.60;74.16
37206;BME280;23099;42.636;23.198;2022-10-31T00:54:59;92510.53;;;9.57;74.20
37206;BME280;23099;42.636;23.198;2022-10-31T00:57:26;92514.66;;;9.55;74.15
37206;BME280;23099;42.636;23.198;2022-10-31T00:59:52;92510.03;;;9.52;74.38
37206;BME280;23099;42.636;23.198;2022-10-31T01:02:19;92516.31;;;9.32;74.65
37206;BME280;23099;42.636;23.198;2022-10-31T01:04:47;92519.88;;;9.23;75.36
37206;BME280;23099;42.636;23.198;2022-10-31T01:07:14;92513.59;;;9.16;76.01
37206;BME280;23099;42.636;23.198;2022-10-31T01:09:41;92515.91;;;9.17;76.23
37206;BME280;23099;42.636;23.198;2022-10-31T01:12:07;92515.78;;;9.26;76.19
37206;BME280;23099;42.636;23.198;2022-10-31T01:14:34;92529.75;;;9.35;76.09
37206;BME280;23099;42.636;23.198;2022-10-31T01:17:01;92523.72;;;9.38;76.03
37206;BME280;23099;42.636;23.198;2022-10-31T01:19:28;92522.09;;;9.34;76.33
37206;BME280;23099;42.636;23.198;2022-10-31T01:21:56;92522.09;;;9.34;76.42
37206;BME280;23099;42.636;23.198;2022-10-31T01:24:22;92519.44;;;9.34;76.26
37206;BME280;23099;42.636;23.198;2022-10-31T01:26:49;92519.94;;;9.39;76.08
37206;BME280;23099;42.636;23.198;2022-10-31T01:29:16;92518.09;;;9.28;76.69
37206;BME280;23099;42.636;23.198;2022-10-31T01:31:43;92516.97;;;9.29;77.18
37206;BME280;23099;42.636;23.198;2022-10-31T01:34:12;92521.22;;;9.30;76.69
37206;BME280;23099;42.636;23.198;2022-10-31T01:36:40;92514.91;;;9.22;76.43
37206;BME280;23099;42.636;23.198;2022-10-31T01:39:14;92508.03;;;9.21;77.26
37206;BME280;23099;42.636;23.198;2022-10-31T01:41:44;92509.75;;;9.29;76.96
37206;BME280;23099;42.636;23.198;2022-10-31T01:47:17;92507.97;;;9.33;77.36
37206;BME280;23099;42.636;23.198;2022-10-31T01:49:49;92517.88;;;9.33;77.01
37206;BME280;23099;42.636;23.198;2022-10-31T01:52:22;92507.38;;;9.40;77.20
37206;BME280;23099;42.636;23.198;2022-10-31T01:54:56;92511.53;;;9.53;77.17
37206;BME280;23099;42.636;23.198;2022-10-31T01:57:24;92507.53;;;9.59;77.31
37206;BME280;23099;42.636;23.198;2022-10-31T01:59:55;92504.63;;;9.64;76.37
37206;BME280;23099;42.636;23.198;2022-10-31T02:02:24;92508.56;;;9.70;76.54
37206;BME280;23099;42.636;23.198;2022-10-31T02:04:51;92506.78;;;9.74;76.04
37206;BME280;23099;42.636;23.198;2022-10-31T02:07:23;92505.31;;;9.77;76.23
37206;BME280;23099;42.636;23.198;2022-10-31T02:09:53;92505.81;;;9.82;76.42
37206;BME280;23099;42.636;23.198;2022-10-31T02:12:22;92503.69;;;9.88;76.56
37206;BME280;23099;42.636;23.198;2022-10-31T02:14:49;92504.63;;;9.96;75.68
37206;BME280;23099;42.636;23.198;2022-10-31T02:17:15;92498.72;;;10.02;76.75
37206;BME280;23099;42.636;23.198;2022-10-31T02:19:50;92503.41;;;10.21;76.93
37206;BME280;23099;42.636;23.198;2022-10-31T02:22:26;92500.28;;;10.35;77.51
37206;BME280;23099;42.636;23.198;2022-10-31T02:25:08;92497.63;;;10.35;75.80
37206;BME280;23099;42.636;23.198;2022-10-31T02:27:52;92506.13;;;10.40;74.57
37206;BME280;23099;42.636;23.198;2022-10-31T02:30:23;92500.00;;;10.40;75.91
37206;BME280;23099;42.636;23.198;2022-10-31T02:33:00;92503.22;;;10.45;75.56
37206;BME280;23099;42.636;23.198;2022-10-31T02:35:39;92504.16;;;10.53;74.96
37206;BME280;23099;42.636;23.198;2022-10-31T02:38:14;92508.88;;;10.59;75.29
37206;BME280;23099;42.636;23.198;2022-10-31T02:40:51;92514.81;;;10.69;77.13
37206;BME280;23099;42.636;23.198;2022-10-31T02:43:26;92522.22;;;10.75;76.86
37206;BME280;23099;42.636;23.198;2022-10-31T02:45:58;92525.56;;;10.88;75.96
37206;BME280;23099;42.636;23.198;2022-10-31T02:48:31;92514.72;;;11.00;76.39
37206;BME280;23099;42.636;23.198;2022-10-31T02:51:02;92519.25;;;11.15;74.38
37206;BME280;23099;42.636;23.198;2022-10-31T02:53:31;92523.78;;;11.30;73.76
37206;BME280;23099;42.636;23.198;2022-10-31T02:56:01;92522.59;;;11.47;72.88
37206;BME280;23099;42.636;23.198;2022-10-31T02:58:31;92519.28;;;11.54;72.18
37206;BME280;23099;42.636;23.198;2022-10-31T03:01:10;92522.25;;;11.68;71.41
37206;BME280;23099;42.636;23.198;2022-10-31T03:03:53;92521.69;;;11.78;71.26
37206;BME280;23099;42.636;23.198;2022-10-31T03:06:29;92522.47;;;11.79;71.64
37206;BME280;23099;42.636;23.198;2022-10-31T03:09:05;92523.72;;;11.85;70.88
37206;BME280;23099;42.636;23.198;2022-10-31T03:11:43;92525.34;;;11.89;70.41
37206;BME280;23099;42.636;23.198;2022-10-31T03:14:16;92534.91;;;11.90;70.78
37206;BME280;23099;42.636;23.198;2022-10-31T03:16:48;92537.94;;;11.89;71.04
37206;BME280;23099;42.636;23.198;2022-10-31T03:19:19;92528.00;;;11.89;70.88
37206;BME280;23099;42.636;23.198;2022-10-31T03:21:54;92525.81;;;11.95;70.34
37206;BME280;23099;42.636;23.198;2022-10-31T03:24:25;92535.78;;;11.94;70.54
37206;BME280;23099;42.636;23.198;2022-10-31T03:26:55;92528.19;;;12.00;70.09
37206;BME280;23099;42.636;23.198;2022-10-31T03:29:27;92528.16;;;11.96;70.25
37206;BME280;23099;42.636;23.198;2022-10-31T03:31:57;92531.81;;;11.88;70.51
37206;BME280;23099;42.636;23.198;2022-10-31T03:34:27;92535.28;;;11.89;70.25
37206;BME280;23099;42.636;23.198;2022-10-31T03:36:57;92537.94;;;11.89;69.82
37206;BME280;23099;42.636;23.198;2022-10-31T03:39:27;92538.78;;;11.93;69.69
37206;BME280;23099;42.636;23.198;2022-10-31T03:41:58;92539.50;;;11.90;69.77
37206;BME280;23099;42.636;23.198;2022-10-31T03:44:27;92550.16;;;11.86;69.84
37206;BME280;23099;42.636;23.198;2022-10-31T03:46:57;92549.38;;;11.86;69.97
37206;BME280;23099;42.636;23.198;2022-10-31T03:49:23;92554.44;;;11.91;69.80
37206;BME280;23099;42.636;23.198;2022-10-31T03:51:58;92547.53;;;11.90;69.59
37206;BME280;23099;42.636;23.198;2022-10-31T03:54:31;92547.81;;;11.85;70.14
37206;BME280;23099;42.636;23.198;2022-10-31T03:57:04;92552.97;;;11.93;69.88
37206;BME280;23099;42.636;23.198;2022-10-31T03:59:35;92552.97;;;11.93;69.92
37206;BME280;23099;42.636;23.198;2022-10-31T04:02:06;92552.66;;;11.98;69.65
37206;BME280;23099;42.636;23.198;2022-10-31T04:04:35;92555.72;;;11.97;69.84
37206;BME280;23099;42.636;23.198;2022-10-31T04:07:05;92564.03;;;11.92;69.80
37206;BME280;23099;42.636;23.198;2022-10-31T04:09:35;92557.47;;;11.89;70.04
37206;BME280;23099;42.636;23.198;2022-10-31T04:12:04;92564.81;;;11.92;70.02
37206;BME280;23099;42.636;23.198;2022-10-31T04:14:35;92560.94;;;11.90;70.32
37206;BME280;23099;42.636;23.198;2022-10-31T04:17:06;92568.53;;;11.88;71.02
37206;BME280;23099;42.636;23.198;2022-10-31T04:19:34;92566.91;;;11.83;71.09
37206;BME280;23099;42.636;23.198;2022-10-31T04:22:01;92559.25;;;11.82;71.13
37206;BME280;23099;42.636;23.198;2022-10-31T04:24:29;92567.22;;;11.78;71.66
37206;BME280;23099;42.636;23.198;2022-10-31T04:26:56;92569.13;;;11.78;71.60
37206;BME280;23099;42.636;23.198;2022-10-31T04:29:22;92562.72;;;11.82;71.28
37206;BME280;23099;42.636;23.198;2022-10-31T04:31:49;92564.38;;;11.90;71.24
37206;BME280;23099;42.636;23.198;2022-10-31T04:34:16;92568.34;;;11.96;71.05
37206;BME280;23099;42.636;23.198;2022-10-31T04:36:43;92556.88;;;11.99;70.93
37206;BME280;23099;42.636;23.198;2022-10-31T04:39:09;92555.34;;;11.98;70.85
37206;BME280;23099;42.636;23.198;2022-10-31T04:41:37;92561.63;;;12.06;70.47
37206;BME280;23099;42.636;23.198;2022-10-31T04:44:04;92562.81;;;12.09;70.62
37206;BME280;23099;42.636;23.198;2022-10-31T04:46:31;92567.41;;;12.08;71.37
37206;BME280;23099;42.636;23.198;2022-10-31T04:48:57;92565.78;;;12.03;71.46
37206;BME280;23099;42.636;23.198;2022-10-31T04:51:24;92567.69;;;12.03;71.44
37206;BME280;23099;42.636;23.198;2022-10-31T04:53:51;92575.38;;;12.04;71.39
37206;BME280;23099;42.636;23.198;2022-10-31T04:56:17;92566.56;;;12.04;71.88
37206;BME280;23099;42.636;23.198;2022-10-31T04:58:45;92575.38;;;12.04;71.83
37206;BME280;23099;42.636;23.198;2022-10-31T05:01:12;92573.19;;;12.10;71.60
37206;BME280;23099;42.636;23.198;2022-10-31T05:03:39;92584.69;;;12.11;71.64
37206;BME280;23099;42.636;23.198;2022-10-31T05:06:06;92575.50;;;12.12;71.73
37206;BME280;23099;42.636;23.198;2022-10-31T05:08:33;92578.22;;;12.15;71.61
37206;BME280;23099;42.636;23.198;2022-10-31T05:11:00;92583.25;;;12.17;71.22
37206;BME280;23099;42.636;23.198;2022-10-31T05:13:27;92585.63;;;12.22;70.93
37206;BME280;23099;42.636;23.198;2022-10-31T05:15:55;92593.78;;;12.29;71.13
37206;BME280;23099;42.636;23.198;2022-10-31T05:18:22;92589.50;;;12.24;71.57
37206;BME280;23099;42.636;23.198;2022-10-31T05:20:49;92591.84;;;12.26;71.11
37206;BME280;23099;42.636;23.198;2022-10-31T05:23:16;92596.63;;;12.17;71.49
37206;BME280;23099;42.636;23.198;2022-10-31T05:25:42;92594.97;;;12.09;71.78
37206;BME280;23099;42.636;23.198;2022-10-31T05:28:09;92603.78;;;12.09;71.72
37206;BME280;23099;42.636;23.198;2022-10-31T05:30:36;92597.69;;;12.12;71.64
37206;BME280;23099;42.636;23.198;2022-10-31T05:33:04;92595.75;;;12.09;71.62
37206;BME280;23099;42.636;23.198;2022-10-31T05:35:32;92596.09;;;12.08;71.97
37206;BME280;23099;42.636;23.198;2022-10-31T05:37:59;92601.03;;;12.06;71.83
37206;BME280;23099;42.636;23.198;2022-10-31T05:40:26;92609.84;;;12.06;71.80
37206;BME280;23099;42.636;23.198;2022-10-31T05:42:55;92613.56;;;12.01;71.85
37206;BME280;23099;42.636;23.198;2022-10-31T05:45:22;92605.47;;;11.98;71.38
37206;BME280;23099;42.636;23.198;2022-10-31T05:47:54;92614.94;;;11.92;71.46
37206;BME280;23099;42.636;23.198;2022-10-31T05:50:24;92612.75;;;11.78;72.13
37206;BME280;23099;42.636;23.198;2022-10-31T05:52:55;92617.09;;;11.67;72.63
37206;BME280;23099;42.636;23.198;2022-10-31T05:55:22;92613.63;;;11.66;73.02
37206;BME280;23099;42.636;23.198;2022-10-31T05:57:51;92620.06;;;11.46;73.62
37206;BME280;23099;42.636;23.198;2022-10-31T06:00:18;92621.19;;;11.45;73.66
37206;BME280;23099;42.636;23.198;2022-10-31T06:02:44;92622.25;;;11.41;74.13
37206;BME280;23099;42.636;23.198;2022-10-31T06:05:11;92627.53;;;11.37;74.20
37206;BME280;23099;42.636;23.198;2022-10-31T06:07:39;92629.44;;;11.37;74.22
37206;BME280;23099;42.636;23.198;2022-10-31T06:10:08;92632.53;;;11.39;74.28
37206;BME280;23099;42.636;23.198;2022-10-31T06:12:35;92642.19;;;11.43;74.04
37206;BME280;23099;42.636;23.198;2022-10-31T06:15:04;92641.75;;;11.41;74.18
37206;BME280;23099;42.636;23.198;2022-10-31T06:17:31;92642.63;;;11.45;73.97
37206;BME280;23099;42.636;23.198;2022-10-31T06:19:58;92639.50;;;11.43;74.53
37206;BME280;23099;42.636;23.198;2022-10-31T06:22:24;92647.63;;;11.47;74.37
37206;BME280;23099;42.636;23.198;2022-10-31T06:24:52;92644.25;;;11.50;74.52
37206;BME280;23099;42.636;23.198;2022-10-31T06:27:19;92644.38;;;11.57;74.46
37206;BME280;23099;42.636;23.198;2022-10-31T06:29:46;92649.06;;;11.60;74.21
37206;BME280;23099;42.636;23.198;2022-10-31T06:32:14;92651.13;;;11.66;74.09
37206;BME280;23099;42.636;23.198;2022-10-31T06:34:41;92663.50;;;11.75;73.77
37206;BME280;23099;42.636;23.198;2022-10-31T06:37:09;92657.84;;;11.76;73.37
37206;BME280;23099;42.636;23.198;2022-10-31T06:39:36;92655.66;;;11.82;73.25
37206;BME280;23099;42.636;23.198;2022-10-31T06:42:04;92658.47;;;11.89;72.71
37206;BME280;23099;42.636;23.198;2022-10-31T06:44:30;92655.59;;;11.97;72.35
37206;BME280;23099;42.636;23.198;2022-10-31T06:46:57;92654.47;;;11.98;71.70
37206;BME280;23099;42.636;23.198;2022-10-31T06:49:24;92657.72;;;12.08;70.59
37206;BME280;23099;42.636;23.198;2022-10-31T06:51:51;92660.88;;;12.13;70.36
37206;BME280;23099;42.636;23.198;2022-10-31T06:54:18;92657.56;;;12.20;70.44
37206;BME280;23099;42.636;23.198;2022-10-31T06:56:46;92658.84;;;12.26;70.32
37206;BME280;23099;42.636;23.198;2022-10-31T06:59:14;92651.28;;;12.31;69.89
37206;BME280;23099;42.636;23.198;2022-10-31T07:01:41;92655.22;;;12.37;69.70
37206;BME280;23099;42.636;23.198;2022-10-31T07:04:08;92653.38;;;12.42;69.82
37206;BME280;23099;42.636;23.198;2022-10-31T07:06:35;92653.88;;;12.47;69.29
37206;BME280;23099;42.636;23.198;2022-10-31T07:09:02;92648.16;;;12.49;69.68
37206;BME280;23099;42.636;23.198;2022-10-31T07:11:29;92650.16;;;12.55;68.74
37206;BME280;23099;42.636;23.198;2022-10-31T07:13:55;92660.31;;;12.65;68.65
37206;BME280;23099;42.636;23.198;2022-10-31T07:16:24;92654.72;;;12.74;68.62
37206;BME280;23099;42.636;23.198;2022-10-31T07:18:50;92656.06;;;12.84;68.65
37206;BME280;23099;42.636;23.198;2022-10-31T07:21:17;92648.94;;;12.95;69.63
37206;BME280;23099;42.636;23.198;2022-10-31T07:23:47;92658.78;;;13.10;69.46
37206;BME280;23099;42.636;23.198;2022-10-31T07:26:14;92647.47;;;13.20;69.10
37206;BME280;23099;42.636;23.198;2022-10-31T07:28:40;92641.16;;;13.35;68.71
37206;BME280;23099;42.636;23.198;2022-10-31T07:31:07;92649.06;;;13.51;68.16
37206;BME280;23099;42.636;23.198;2022-10-31T07:33:35;92642.81;;;13.70;67.90
37206;BME280;23099;42.636;23.198;2022-10-31T07:36:02;92629.69;;;13.95;67.15
37206;BME280;23099;42.636;23.198;2022-10-31T07:38:29;92622.00;;;14.27;65.65
37206;BME280;23099;42.636;23.198;2022-10-31T07:40:56;92629.25;;;14.56;65.43
37206;BME280;23099;42.636;23.198;2022-10-31T07:43:22;92629.25;;;14.97;63.51
37206;BME280;23099;42.636;23.198;2022-10-31T07:45:50;92636.81;;;15.32;61.94
37206;BME280;23099;42.636;23.198;2022-10-31T07:48:17;92628.28;;;15.70;60.84
37206;BME280;23099;42.636;23.198;2022-10-31T07:50:45;92633.44;;;16.04;58.81
37206;BME280;23099;42.636;23.198;2022-10-31T07:53:12;92629.31;;;16.35;58.86
37206;BME280;23099;42.636;23.198;2022-10-31T07:55:39;92631.69;;;16.61;56.85
37206;BME280;23099;42.636;23.198;2022-10-31T07:58:07;92627.13;;;16.76;55.44
37206;BME280;23099;42.636;23.198;2022-10-31T08:00:35;92627.16;;;17.04;55.05
37206;BME280;23099;42.636;23.198;2022-10-31T08:03:04;92630.66;;;17.22;53.77
37206;BME280;23099;42.636;23.198;2022-10-31T08:05:32;92634.53;;;17.43;53.68
37206;BME280;23099;42.636;23.198;2022-10-31T08:08:00;92627.56;;;17.70;52.25
37206;BME280;23099;42.636;23.198;2022-10-31T08:10:27;92636.38;;;17.99;51.72
37206;BME280;23099;42.636;23.198;2022-10-31T08:12:58;92628.56;;;18.26;50.24
37206;BME280;23099;42.636;23.198;2022-10-31T08:15:25;92635.41;;;18.55;50.08
37206;BME280;23099;42.636;23.198;2022-10-31T08:17:52;92641.88;;;18.76;50.72
37206;BME280;23099;42.636;23.198;2022-10-31T08:20:19;92632.56;;;18.87;49.50
37206;BME280;23099;42.636;23.198;2022-10-31T08:22:56;92637.91;;;18.98;48.28
37206;BME280;23099;42.636;23.198;2022-10-31T08:25:26;92637.91;;;18.98;47.38
37206;BME280;23099;42.636;23.198;2022-10-31T08:27:54;92636.28;;;19.07;48.59
37206;BME280;23099;42.636;23.198;2022-10-31T08:30:22;92636.25;;;19.11;47.30
37206;BME280;23099;42.636;23.198;2022-10-31T08:32:58;92640.94;;;19.07;48.20
37206;BME280;23099;42.636;23.198;2022-10-31T08:35:25;92642.06;;;19.10;47.85
37206;BME280;23099;42.636;23.198;2022-10-31T08:37:52;92643.63;;;19.11;48.47
37206;BME280;23099;42.636;23.198;2022-10-31T08:40:19;92639.72;;;19.19;50.49
37206;BME280;23099;42.636;23.198;2022-10-31T08:42:54;92642.81;;;19.17;49.26
37206;BME280;23099;42.636;23.198;2022-10-31T08:45:21;92643.53;;;19.21;47.08
37206;BME280;23099;42.636;23.198;2022-10-31T08:47:47;92648.53;;;19.30;47.57
37206;BME280;23099;42.636;23.198;2022-10-31T08:50:14;92650.06;;;19.31;48.09
37206;BME280;23099;42.636;23.198;2022-10-31T08:52:41;92648.94;;;19.25;47.04
37206;BME280;23099;42.636;23.198;2022-10-31T08:55:08;92647.41;;;19.20;47.71
37206;BME280;23099;42.636;23.198;2022-10-31T08:57:35;92648.63;;;19.16;49.38
37206;BME280;23099;42.636;23.198;2022-10-31T09:00:04;92651.06;;;18.99;47.75
37206;BME280;23099;42.636;23.198;2022-10-31T09:02:30;92654.16;;;18.98;48.76
37206;BME280;23099;42.636;23.198;2022-10-31T09:04:57;92653.41;;;18.90;49.15
37206;BME280;23099;42.636;23.198;2022-10-31T09:07:24;92651.91;;;18.89;50.13
37206;BME280;23099;42.636;23.198;2022-10-31T09:09:51;92654.25;;;18.80;48.58
37206;BME280;23099;42.636;23.198;2022-10-31T09:12:17;92650.38;;;18.81;49.39
37206;BME280;23099;42.636;23.198;2022-10-31T09:14:44;92654.25;;;18.84;49.34
37206;BME280;23099;42.636;23.198;2022-10-31T09:17:12;92648.44;;;18.82;48.83
37206;BME280;23099;42.636;23.198;2022-10-31T09:19:39;92652.31;;;18.81;48.95
37206;BME280;23099;42.636;23.198;2022-10-31T09:22:05;92650.34;;;18.88;49.23
37206;BME280;23099;42.636;23.198;2022-10-31T09:24:32;92645.66;;;18.92;48.56
37206;BME280;23099;42.636;23.198;2022-10-31T09:26:59;92646.00;;;19.01;48.24
37206;BME280;23099;42.636;23.198;2022-10-31T09:29:25;92636.34;;;19.00;48.10
37206;BME280;23099;42.636;23.198;2022-10-31T09:31:52;92643.69;;;19.03;46.93
37206;BME280;23099;42.636;23.198;2022-10-31T09:34:20;92642.47;;;19.08;47.70
37206;BME280;23099;42.636;23.198;2022-10-31T09:36:47;92643.63;;;19.11;47.31
37206;BME280;23099;42.636;23.198;2022-10-31T09:39:13;92645.53;;;19.14;47.40
37206;BME280;23099;42.636;23.198;2022-10-31T09:41:55;92644.75;;;19.17;47.13
37206;BME280;23099;42.636;23.198;2022-10-31T09:44:31;92639.63;;;19.26;46.30
37206;BME280;23099;42.636;23.198;2022-10-31T09:47:05;92634.19;;;19.29;46.49
37206;BME280;23099;42.636;23.198;2022-10-31T09:49:49;92640.69;;;19.39;47.05
37206;BME280;23099;42.636;23.198;2022-10-31T09:52:22;92641.06;;;19.41;46.33
37206;BME280;23099;42.636;23.198;2022-10-31T09:54:53;92643.38;;;19.46;45.88
37206;BME280;23099;42.636;23.198;2022-10-31T09:57:25;92641.38;;;19.54;45.70
37206;BME280;23099;42.636;23.198;2022-10-31T09:59:54;92641.72;;;19.59;45.14
37206;BME280;23099;42.636;23.198;2022-10-31T10:02:23;92639.78;;;19.60;45.33
37206;BME280;23099;42.636;23.198;2022-10-31T10:04:56;92642.28;;;19.81;44.67
37206;BME280;23099;42.636;23.198;2022-10-31T10:07:41;92632.03;;;19.99;45.38
37206;BME280;23099;42.636;23.198;2022-10-31T10:10:17;92630.16;;;20.30;43.41
37206;BME280;23099;42.636;23.198;2022-10-31T10:13:01;92629.44;;;20.60;43.76
37206;BME280;23099;42.636;23.198;2022-10-31T10:15:41;92626.34;;;20.89;42.62
37206;BME280;23099;42.636;23.198;2022-10-31T10:18:20;92620.00;;;21.26;41.57
37206;BME280;23099;42.636;23.198;2022-10-31T10:20:59;92615.41;;;21.46;41.66
37206;BME280;23099;42.636;23.198;2022-10-31T10:23:37;92610.53;;;21.80;40.29
37206;BME280;23099;42.636;23.198;2022-10-31T10:26:15;92614.81;;;22.05;39.07
37206;BME280;23099;42.636;23.198;2022-10-31T10:28:44;92603.56;;;22.22;38.84
37206;BME280;23099;42.636;23.198;2022-10-31T10:31:16;92603.88;;;22.48;38.30
37206;BME280;23099;42.636;23.198;2022-10-31T10:33:54;92603.41;;;22.69;37.85
37206;BME280;23099;42.636;23.198;2022-10-31T10:36:28;92601.25;;;23.16;37.26
37206;BME280;23099;42.636;23.198;2022-10-31T10:38:59;92595.63;;;23.23;35.99
37206;BME280;23099;42.636;23.198;2022-10-31T10:41:30;92588.56;;;23.42;36.79
37206;BME280;23099;42.636;23.198;2022-10-31T10:43:57;92588.22;;;23.40;36.04
37206;BME280;23099;42.636;23.198;2022-10-31T10:46:30;92592.00;;;23.63;36.03
37206;BME280;23099;42.636;23.198;2022-10-31T10:49:19;92591.91;;;24.11;35.87
37206;BME280;23099;42.636;23.198;2022-10-31T10:51:56;92593.34;;;24.32;35.75
37206;BME280;23099;42.636;23.198;2022-10-31T10:54:41;92592.22;;;24.71;36.42
37206;BME280;23099;42.636;23.198;2022-10-31T10:57:22;92595.09;;;24.80;34.26
37206;BME280;23099;42.636;23.198;2022-10-31T10:59:50;92593.72;;;25.01;34.67
37206;BME280;23099;42.636;23.198;2022-10-31T11:02:19;92591.66;;;25.18;34.07
37206;BME280;23099;42.636;23.198;2022-10-31T11:04:49;92593.94;;;25.19;32.73
37206;BME280;23099;42.636;23.198;2022-10-31T11:07:18;92591.41;;;25.50;33.28
37206;BME280;23099;42.636;23.198;2022-10-31T11:09:45;92585.81;;;25.54;31.86
37206;BME280;23099;42.636;23.198;2022-10-31T11:12:18;92585.59;;;25.48;31.49
37206;BME280;23099;42.636;23.198;2022-10-31T11:14:49;92584.28;;;25.78;32.60
37206;BME280;23099;42.636;23.198;2022-10-31T11:17:26;92584.69;;;25.89;31.98
37206;BME280;23099;42.636;23.198;2022-10-31T11:20:02;92580.47;;;25.97;30.36
37206;BME280;23099;42.636;23.198;2022-10-31T11:22:31;92577.34;;;26.21;32.64
37206;BME280;23099;42.636;23.198;2022-10-31T11:24:58;92572.09;;;26.48;29.98
37206;BME280;23099;42.636;23.198;2022-10-31T11:27:25;92571.56;;;26.62;30.14
37206;BME280;23099;42.636;23.198;2022-10-31T11:29:52;92570.31;;;26.85;29.73
37206;BME280;23099;42.636;23.198;2022-10-31T11:32:21;92557.94;;;27.02;29.09
37206;BME280;23099;42.636;23.198;2022-10-31T11:34:51;92563.41;;;26.93;28.58
37206;BME280;23099;42.636;23.198;2022-10-31T11:37:21;92568.22;;;26.89;28.32
37206;BME280;23099;42.636;23.198;2022-10-31T11:39:52;92559.09;;;26.92;29.10
37206;BME280;23099;42.636;23.198;2022-10-31T11:42:21;92551.22;;;26.72;28.44
37206;BME280;23099;42.636;23.198;2022-10-31T11:44:50;92560.41;;;26.79;29.13
37206;BME280;23099;42.636;23.198;2022-10-31T11:47:23;92557.53;;;26.82;28.82
37206;BME280;23099;42.636;23.198;2022-10-31T11:49:52;92560.31;;;26.38;28.85
37206;BME280;23099;42.636;23.198;2022-10-31T11:52:21;92555.75;;;26.45;30.67
37206;BME280;23099;42.636;23.198;2022-10-31T11:54:53;92549.19;;;26.20;30.03
37206;BME280;23099;42.636;23.198;2022-10-31T11:57:25;92556.16;;;26.34;29.69
37206;BME280;23099;42.636;23.198;2022-10-31T11:59:54;92555.09;;;26.19;29.50
37206;BME280;23099;42.636;23.198;2022-10-31T12:02:21;92556.31;;;26.18;30.11
37206;BME280;23099;42.636;23.198;2022-10-31T12:04:55;92538.59;;;26.10;30.02
37206;BME280;23099;42.636;23.198;2022-10-31T12:07:24;92551.59;;;25.96;30.21
37206;BME280;23099;42.636;23.198;2022-10-31T12:09:52;92549.94;;;25.86;29.78
37206;BME280;23099;42.636;23.198;2022-10-31T12:15:25;92553.53;;;24.85;31.97
37206;BME280;23099;42.636;23.198;2022-10-31T12:18:03;92554.34;;;24.44;32.16
37206;BME280;23099;42.636;23.198;2022-10-31T12:20:40;92558.75;;;23.96;33.35
37206;BME280;23099;42.636;23.198;2022-10-31T12:23:15;92552.78;;;23.56;33.88
37206;BME280;23099;42.636;23.198;2022-10-31T12:25:50;92556.69;;;23.39;35.13
37206;BME280;23099;42.636;23.198;2022-10-31T12:28:39;92558.47;;;23.13;34.58
37206;BME280;23099;42.636;23.198;2022-10-31T12:31:17;92560.06;;;22.95;35.25
37206;BME280;23099;42.636;23.198;2022-10-31T12:33:54;92562.47;;;22.73;35.76
37206;BME280;23099;42.636;23.198;2022-10-31T12:36:34;92553.25;;;22.50;35.92
37206;BME280;23099;42.636;23.198;2022-10-31T12:39:24;92553.94;;;22.15;36.48
37206;BME280;23099;42.636;23.198;2022-10-31T12:41:55;92552.88;;;22.09;37.53
37206;BME280;23099;42.636;23.198;2022-10-31T12:47:57;92552.88;;;21.89;37.56
37206;BME280;23099;42.636;23.198;2022-10-31T12:50:41;92556.63;;;21.75;37.76
37206;BME280;23099;42.636;23.198;2022-10-31T12:53:22;92554.03;;;21.68;38.05
37206;BME280;23099;42.636;23.198;2022-10-31T12:56:05;92565.56;;;21.52;38.81
37206;BME280;23099;42.636;23.198;2022-10-31T12:58:45;92562.66;;;21.40;38.78
37206;BME280;23099;42.636;23.198;2022-10-31T13:01:17;92558.97;;;21.30;39.48
37206;BME280;23099;42.636;23.198;2022-10-31T13:03:50;92555.97;;;21.21;40.02
37206;BME280;23099;42.636;23.198;2022-10-31T13:06:19;92568.59;;;21.08;40.90
37206;BME280;23099;42.636;23.198;2022-10-31T13:08:51;92559.84;;;20.97;40.32
37206;BME280;23099;42.636;23.198;2022-10-31T13:11:22;92567.75;;;20.88;40.88
37206;BME280;23099;42.636;23.198;2022-10-31T13:13:57;92567.03;;;20.83;40.96
37206;BME280;23099;42.636;23.198;2022-10-31T13:16:29;92564.84;;;20.75;41.94